Time;durP1;ratioP1;P1;durP2;ratioP2;P2;SDS_P1;SDS_P2;PMS_P1;PMS_P2;Temp;Humidity;BMP_temperature;BMP_pressure;BME280_temperature;BME280_humidity;BME280_pressure;Samples;Min_cycle;Max_cycle;Signal;HPM_P1;HPM_P2
2024/02/12 00:00:38;;;;;;;27.83;17.10;;;8.30;99.90;;;;;;5013606;28;20286;-65
2024/02/12 00:03:06;;;;;;;21.33;14.63;;;8.30;99.90;;;;;;5013799;28;20207;-67
2024/02/12 00:05:35;;;;;;;20.27;15.07;;;8.30;99.90;;;;;;5014184;28;20286;-65
2024/02/12 00:08:04;;;;;;;26.52;15.88;;;8.30;99.90;;;;;;5014068;28;20688;-66
2024/02/12 00:10:31;;;;;;;21.33;15.25;;;8.30;99.90;;;;;;5013297;28;20665;-66
2024/02/12 00:12:58;;;;;;;21.27;14.50;;;8.30;99.90;;;;;;5013263;28;20673;-67
2024/02/12 00:15:25;;;;;;;22.20;12.93;;;8.20;99.90;;;;;;5013212;28;20233;-66
2024/02/12 00:17:53;;;;;;;22.40;14.40;;;8.20;99.90;;;;;;5013389;28;20227;-65
2024/02/12 00:20:20;;;;;;;19.27;12.35;;;8.20;99.90;;;;;;5013355;28;20214;-66
2024/02/12 00:22:47;;;;;;;21.90;13.60;;;8.20;99.90;;;;;;5014055;28;20233;-66
2024/02/12 00:25:16;;;;;;;17.77;12.00;;;8.20;99.90;;;;;;5012966;28;20794;-66
2024/02/12 00:27:43;;;;;;;20.33;12.05;;;8.20;99.90;;;;;;5013744;28;20199;-65
2024/02/12 00:30:12;;;;;;;26.15;12.13;;;8.20;99.90;;;;;;5017366;28;20202;-66
2024/02/12 00:32:38;;;;;;;19.58;11.30;;;8.20;99.90;;;;;;5016967;28;20213;-66
2024/02/12 00:35:08;;;;;;;16.92;11.48;;;8.20;99.90;;;;;;5017446;28;20227;-67
2024/02/12 00:37:34;;;;;;;20.05;11.40;;;8.20;99.90;;;;;;5017196;28;20250;-66
2024/02/12 00:40:03;;;;;;;15.90;11.23;;;8.20;99.90;;;;;;5017311;28;20562;-66
2024/02/12 00:42:29;;;;;;;17.58;10.25;;;8.20;99.90;;;;;;5017109;28;20201;-65
2024/02/12 00:44:56;;;;;;;15.77;10.88;;;8.20;99.90;;;;;;5016747;28;20230;-65
2024/02/12 00:47:25;;;;;;;15.75;11.18;;;8.20;99.90;;;;;;5017091;28;20210;-65
2024/02/12 00:49:53;;;;;;;20.23;11.65;;;8.20;99.90;;;;;;5017086;28;20199;-66
2024/02/12 00:52:23;;;;;;;18.13;10.93;;;8.20;99.90;;;;;;5016929;28;20214;-65
2024/02/12 00:54:51;;;;;;;15.45;10.38;;;8.20;99.90;;;;;;5017017;28;20222;-65
2024/02/12 00:57:19;;;;;;;14.55;10.00;;;8.20;99.90;;;;;;5016970;28;20207;-66
2024/02/12 00:59:46;;;;;;;18.83;11.55;;;8.20;99.90;;;;;;5016635;28;20567;-66
2024/02/12 01:02:13;;;;;;;18.98;10.50;;;8.20;99.90;;;;;;5016364;28;20207;-65
2024/02/12 01:04:40;;;;;;;16.98;11.05;;;8.20;99.90;;;;;;5017843;28;20222;-65
2024/02/12 01:07:06;;;;;;;17.65;10.23;;;8.20;99.90;;;;;;5017063;28;20207;-66
2024/02/12 01:09:34;;;;;;;16.20;10.60;;;8.20;99.90;;;;;;5017055;28;20206;-66
2024/02/12 01:12:03;;;;;;;13.32;10.05;;;8.20;99.90;;;;;;5016862;28;20654;-66
2024/02/12 01:14:30;;;;;;;17.15;10.55;;;8.20;99.90;;;;;;5017226;28;20229;-66
2024/02/12 01:16:57;;;;;;;14.43;10.02;;;8.20;99.90;;;;;;5016584;28;20696;-65
2024/02/12 01:19:24;;;;;;;14.35;9.15;;;8.20;99.90;;;;;;5016720;28;20225;-65
2024/02/12 01:21:51;;;;;;;14.32;9.02;;;8.20;99.90;;;;;;5017149;28;20203;-65
2024/02/12 01:24:17;;;;;;;13.57;9.63;;;8.20;99.90;;;;;;5017509;28;20239;-65
2024/02/12 01:26:46;;;;;;;13.07;8.90;;;8.20;99.90;;;;;;5017341;28;20222;-65
2024/02/12 01:29:14;;;;;;;12.90;8.25;;;8.20;99.90;;;;;;5017907;28;20224;-66
2024/02/12 01:31:40;;;;;;;14.15;8.75;;;8.20;99.90;;;;;;5017123;28;20207;-65
2024/02/12 01:34:07;;;;;;;12.15;8.10;;;8.20;99.90;;;;;;5017523;28;20227;-65
2024/02/12 01:36:36;;;;;;;18.88;8.85;;;8.30;99.90;;;;;;5018307;28;20207;-66
2024/02/12 01:39:04;;;;;;;16.08;7.97;;;8.30;99.90;;;;;;5018405;28;20579;-66
2024/02/12 01:41:32;;;;;;;12.70;8.82;;;8.20;99.90;;;;;;5018679;28;20575;-65
2024/02/12 01:44:00;;;;;;;12.02;8.23;;;8.20;99.90;;;;;;5021818;28;20227;-66
2024/02/12 01:46:26;;;;;;;16.73;8.43;;;8.30;99.90;;;;;;5020841;28;20211;-66
2024/02/12 01:48:53;;;;;;;11.45;7.93;;;8.30;99.90;;;;;;5020591;28;20638;-64
2024/02/12 01:51:21;;;;;;;11.40;7.53;;;8.30;99.90;;;;;;5020495;28;20203;-65
2024/02/12 01:53:50;;;;;;;9.88;6.97;;;8.30;99.90;;;;;;5021049;28;20223;-65
2024/02/12 01:56:17;;;;;;;12.90;8.35;;;8.30;99.90;;;;;;5020944;28;20211;-66
2024/02/12 01:58:44;;;;;;;10.30;7.03;;;8.30;99.90;;;;;;5020008;28;20231;-65
2024/02/12 02:01:14;;;;;;;13.20;7.75;;;8.30;99.90;;;;;;5018169;28;20206;-66
2024/02/12 02:03:41;;;;;;;11.45;6.65;;;8.30;99.90;;;;;;5015879;28;20684;-66
2024/02/12 02:06:08;;;;;;;13.70;6.78;;;8.30;99.90;;;;;;5015856;28;20217;-65
2024/02/12 02:08:36;;;;;;;16.02;7.20;;;8.30;99.90;;;;;;5015995;28;20250;-65
2024/02/12 02:11:04;;;;;;;9.38;6.45;;;8.30;99.90;;;;;;5015801;28;20199;-65
2024/02/12 02:13:32;;;;;;;10.07;6.75;;;8.30;99.90;;;;;;5015718;28;20242;-66
2024/02/12 02:15:59;;;;;;;9.50;6.05;;;8.30;99.90;;;;;;5015776;28;20199;-66
2024/02/12 02:18:29;;;;;;;11.13;7.15;;;8.20;99.90;;;;;;5015761;28;20317;-66
2024/02/12 02:20:56;;;;;;;14.10;6.22;;;8.30;99.90;;;;;;5015220;28;20703;-66
2024/02/12 02:23:22;;;;;;;8.90;6.80;;;8.30;99.90;;;;;;5015280;28;20326;-68
2024/02/12 02:25:50;;;;;;;13.45;6.90;;;8.20;99.90;;;;;;5015518;28;20192;-66
2024/02/12 02:28:18;;;;;;;12.35;6.40;;;8.30;99.90;;;;;;5015460;28;20203;-66
2024/02/12 02:30:48;;;;;;;13.00;7.10;;;8.20;99.90;;;;;;5015394;28;20580;-65
2024/02/12 02:33:15;;;;;;;13.68;7.40;;;8.20;99.90;;;;;;5015430;28;20194;-65
2024/02/12 02:35:42;;;;;;;10.50;6.53;;;8.20;99.90;;;;;;5015606;28;20214;-66
2024/02/12 02:38:08;;;;;;;10.25;6.40;;;8.20;99.90;;;;;;5015035;28;20231;-66
2024/02/12 02:40:36;;;;;;;9.65;6.55;;;8.20;99.90;;;;;;5015079;28;20214;-65
2024/02/12 02:43:04;;;;;;;9.63;6.57;;;8.20;99.90;;;;;;5014886;28;20787;-66
2024/02/12 02:45:31;;;;;;;11.57;8.25;;;8.20;99.90;;;;;;5015023;28;20207;-65
2024/02/12 02:47:58;;;;;;;12.18;6.70;;;8.20;99.90;;;;;;5014572;28;20207;-66
2024/02/12 02:50:26;;;;;;;8.73;6.13;;;8.20;99.90;;;;;;5014860;28;20209;-65
2024/02/12 02:52:53;;;;;;;11.23;6.50;;;8.20;99.90;;;;;;5013893;28;20261;-65
2024/02/12 02:55:21;;;;;;;11.13;7.35;;;8.20;99.90;;;;;;5014472;28;20717;-66
2024/02/12 02:57:48;;;;;;;7.85;6.53;;;8.20;99.90;;;;;;5014879;28;20211;-65
2024/02/12 03:00:16;;;;;;;13.88;7.72;;;8.10;99.90;;;;;;5014489;28;20677;-65
2024/02/12 03:02:44;;;;;;;10.02;7.00;;;8.10;99.90;;;;;;5015544;28;20206;-65
2024/02/12 03:05:14;;;;;;;9.35;7.10;;;8.10;99.90;;;;;;5014979;28;20219;-66
2024/02/12 03:07:43;;;;;;;13.60;6.75;;;8.10;99.90;;;;;;5014830;28;20337;-67
2024/02/12 03:10:11;;;;;;;10.75;6.75;;;8.10;99.90;;;;;;5014614;28;20238;-65
2024/02/12 03:12:38;;;;;;;13.43;7.65;;;8.10;99.90;;;;;;5014176;28;20213;-65
2024/02/12 03:15:11;;;;;;;14.27;7.05;;;8.10;99.90;;;;;;5014257;28;20713;-66
2024/02/12 03:17:40;;;;;;;9.02;7.30;;;8.10;99.90;;;;;;5014899;28;20568;-65
2024/02/12 03:20:09;;;;;;;11.55;8.00;;;8.10;99.90;;;;;;5014344;28;20318;-65
2024/02/12 03:22:37;;;;;;;9.73;6.68;;;8.10;99.90;;;;;;5021177;28;20246;-65
2024/02/12 03:25:05;;;;;;;11.40;6.50;;;8.00;99.90;;;;;;5025722;28;20237;-66
2024/02/12 03:27:32;;;;;;;15.70;7.78;;;8.00;99.90;;;;;;5027465;28;20213;-66
2024/02/12 03:29:59;;;;;;;15.30;8.50;;;8.00;99.90;;;;;;5028205;28;20199;-66
2024/02/12 03:32:26;;;;;;;12.88;9.10;;;8.00;99.90;;;;;;5025699;28;20218;-65
2024/02/12 03:34:54;;;;;;;10.35;8.43;;;8.00;99.90;;;;;;5023429;28;20230;-65
2024/02/12 03:37:21;;;;;;;12.55;9.30;;;8.00;99.90;;;;;;5023610;28;20231;-65
2024/02/12 03:39:48;;;;;;;13.55;9.00;;;8.10;99.90;;;;;;5022034;28;20219;-65
2024/02/12 03:42:16;;;;;;;14.60;8.57;;;8.10;99.90;;;;;;5022660;28;20207;-66
2024/02/12 03:44:43;;;;;;;17.08;9.93;;;8.10;99.90;;;;;;5022034;28;20222;-65
2024/02/12 03:47:10;;;;;;;10.63;8.20;;;8.10;99.90;;;;;;5026933;28;20208;-65
2024/02/12 04:00:37;;;;;;;12.60;9.70;;;8.10;99.90;;;;;;5017548;28;20235;-64
2024/02/12 04:03:05;;;;;;;16.33;10.73;;;8.10;99.90;;;;;;5015219;28;20218;-65
2024/02/12 04:05:32;;;;;;;13.85;9.80;;;8.10;99.90;;;;;;5015867;28;20207;-65
2024/02/12 04:08:00;;;;;;;13.95;10.60;;;8.10;99.90;;;;;;5014519;28;20199;-66
2024/02/12 04:13:14;;;;;;;15.13;10.50;;;8.10;99.90;;;;;;5094192;28;20536;-65
2024/02/12 04:15:41;;;;;;;14.05;10.05;;;8.20;99.90;;;;;;5093750;28;20204;-66
2024/02/12 04:18:08;;;;;;;16.92;11.30;;;8.20;99.90;;;;;;5091592;28;20200;-65
2024/02/12 04:20:37;;;;;;;15.15;10.57;;;8.20;99.90;;;;;;5092352;28;20226;-66
2024/02/12 04:23:05;;;;;;;19.00;11.30;;;8.20;99.90;;;;;;5092263;28;20203;-65
2024/02/12 04:25:34;;;;;;;17.30;10.48;;;8.20;99.90;;;;;;5091900;28;20208;-65
2024/02/12 04:28:03;;;;;;;21.98;10.57;;;8.20;99.90;;;;;;5091758;28;20208;-66
2024/02/12 04:30:31;;;;;;;15.60;11.00;;;8.20;99.90;;;;;;5091313;28;20246;-65
2024/02/12 04:33:00;;;;;;;14.50;9.98;;;8.20;99.90;;;;;;5091612;28;20488;-65
2024/02/12 04:35:27;;;;;;;13.95;10.35;;;8.20;99.90;;;;;;5091796;28;20208;-66
2024/02/12 04:37:55;;;;;;;15.63;9.80;;;8.20;99.90;;;;;;5090787;28;20666;-66
2024/02/12 04:40:23;;;;;;;17.35;9.90;;;8.20;99.90;;;;;;5091343;28;20204;-66
2024/02/12 04:42:51;;;;;;;16.45;10.40;;;8.10;99.90;;;;;;5092241;28;20197;-66
2024/02/12 04:45:18;;;;;;;14.03;10.33;;;8.10;99.90;;;;;;5093008;28;20223;-66
2024/02/12 04:47:47;;;;;;;14.45;10.77;;;8.10;99.90;;;;;;5091746;28;20450;-66
2024/02/12 04:50:14;;;;;;;18.90;10.40;;;8.10;99.90;;;;;;5091808;28;20691;-65
2024/02/12 04:52:41;;;;;;;16.17;11.32;;;8.10;99.90;;;;;;5091377;28;20251;-67
2024/02/12 04:55:10;;;;;;;13.18;9.55;;;8.10;99.90;;;;;;5091509;28;20613;-65
2024/02/12 04:57:37;;;;;;;15.18;11.27;;;8.00;99.90;;;;;;5091086;28;20206;-66
2024/02/12 05:00:04;;;;;;;17.48;11.90;;;8.00;99.90;;;;;;5090932;28;20201;-65
2024/02/12 05:02:32;;;;;;;13.82;10.45;;;8.00;99.90;;;;;;5091415;28;20211;-66
2024/02/12 05:05:00;;;;;;;16.80;11.57;;;7.90;99.90;;;;;;5094617;28;20247;-66
2024/02/12 05:07:27;;;;;;;18.50;13.38;;;7.80;99.90;;;;;;5094057;28;20200;-65
2024/02/12 05:09:54;;;;;;;19.10;11.88;;;7.70;99.90;;;;;;5092570;28;20223;-65
2024/02/12 05:12:21;;;;;;;21.73;12.48;;;7.70;99.90;;;;;;5092406;28;20224;-65
2024/02/12 05:14:48;;;;;;;14.65;11.25;;;7.60;99.90;;;;;;5092436;28;20252;-65
2024/02/12 05:17:23;;;;;;;15.60;10.82;;;7.60;99.90;;;;;;5092260;28;20200;-64
2024/02/12 05:22:35;;;;;;;19.52;12.20;;;7.60;99.90;;;;;;5088673;28;20171;-65
2024/02/12 05:25:05;;;;;;;16.17;12.23;;;7.70;99.90;;;;;;5078214;28;20249;-65
2024/02/12 05:27:32;;;;;;;18.58;11.80;;;7.70;99.90;;;;;;5079003;28;20211;-65
2024/02/12 05:29:59;;;;;;;16.23;11.95;;;7.70;99.90;;;;;;5078582;28;20209;-66
2024/02/12 05:32:27;;;;;;;15.10;11.30;;;7.70;99.90;;;;;;5079140;28;20228;-65
2024/02/12 05:34:55;;;;;;;25.45;11.85;;;7.70;99.90;;;;;;5081334;28;20223;-65
2024/02/12 05:37:22;;;;;;;18.05;12.82;;;7.70;99.90;;;;;;5083040;28;20215;-66
2024/02/12 05:39:50;;;;;;;15.85;11.90;;;7.70;99.90;;;;;;5080510;28;20207;-65
2024/02/12 05:42:17;;;;;;;18.30;11.85;;;7.70;99.90;;;;;;5082925;28;20200;-66
2024/02/12 05:44:45;;;;;;;24.85;13.48;;;7.70;99.90;;;;;;5086458;28;20222;-66
2024/02/12 05:47:12;;;;;;;17.55;11.70;;;7.70;99.90;;;;;;5089225;28;20296;-66
2024/02/12 05:49:39;;;;;;;17.63;13.55;;;7.70;99.90;;;;;;5092054;28;20212;-66
2024/02/12 05:52:06;;;;;;;21.77;14.55;;;7.70;99.90;;;;;;5088204;28;20217;-66
2024/02/12 05:54:33;;;;;;;27.52;14.63;;;7.70;99.90;;;;;;5081380;28;20225;-65
2024/02/12 05:57:02;;;;;;;23.05;12.35;;;7.70;99.90;;;;;;5075871;28;20201;-66
2024/02/12 05:59:32;;;;;;;20.90;13.80;;;7.70;99.90;;;;;;5076704;28;20263;-65
2024/02/12 06:01:59;;;;;;;24.48;14.25;;;7.70;99.90;;;;;;5077029;28;20201;-65
2024/02/12 06:04:26;;;;;;;21.05;13.30;;;7.70;99.90;;;;;;5077041;28;20229;-65
2024/02/12 06:06:52;;;;;;;17.80;12.52;;;7.70;99.90;;;;;;5077846;28;20212;-66
2024/02/12 06:09:19;;;;;;;23.40;15.80;;;7.70;99.90;;;;;;5076573;28;20210;-66
2024/02/12 06:11:46;;;;;;;29.05;14.52;;;7.80;99.90;;;;;;5076481;28;20225;-65
2024/02/12 06:14:14;;;;;;;18.77;14.13;;;7.80;99.90;;;;;;5076773;28;20315;-66
2024/02/12 06:16:41;;;;;;;20.42;12.85;;;7.80;99.90;;;;;;5076341;28;20207;-65
2024/02/12 06:19:08;;;;;;;22.95;13.77;;;7.80;99.90;;;;;;5076709;28;20204;-66
2024/02/12 06:21:36;;;;;;;22.38;14.60;;;7.80;99.90;;;;;;5076722;28;20203;-66
2024/02/12 06:24:03;;;;;;;19.08;13.40;;;7.90;99.90;;;;;;5079355;28;20251;-66
2024/02/12 06:26:30;;;;;;;21.25;13.30;;;7.90;99.90;;;;;;5079798;28;20205;-67
2024/02/12 06:28:57;;;;;;;20.05;13.90;;;7.90;99.90;;;;;;5078795;28;20204;-66
2024/02/12 06:31:25;;;;;;;16.77;13.63;;;7.90;99.90;;;;;;5077060;28;20666;-66
2024/02/12 06:33:53;;;;;;;20.30;13.85;;;7.90;99.90;;;;;;5075782;28;20224;-66
2024/02/12 06:36:20;;;;;;;27.17;14.88;;;7.90;99.90;;;;;;5075160;28;20205;-66
2024/02/12 06:38:47;;;;;;;23.08;15.10;;;7.90;99.90;;;;;;5076295;28;20197;-66
2024/02/12 06:41:13;;;;;;;23.35;14.77;;;8.00;99.90;;;;;;5075924;28;20208;-66
2024/02/12 06:43:41;;;;;;;23.13;15.57;;;7.90;99.90;;;;;;5075268;28;20298;-66
2024/02/12 06:46:08;;;;;;;26.95;16.60;;;7.90;99.90;;;;;;5075842;28;20197;-66
2024/02/12 06:48:37;;;;;;;22.58;16.17;;;7.90;99.90;;;;;;5075239;28;20575;-65
2024/02/12 06:51:08;;;;;;;25.42;15.95;;;7.90;99.90;;;;;;5077024;28;20254;-66
2024/02/12 06:53:35;;;;;;;23.40;15.68;;;7.80;99.90;;;;;;5078488;28;20261;-66
2024/02/12 06:56:03;;;;;;;25.30;15.23;;;7.80;99.90;;;;;;5079915;28;20289;-65
2024/02/12 06:58:30;;;;;;;29.00;15.95;;;7.70;99.90;;;;;;5079403;28;20620;-67
2024/02/12 07:00:57;;;;;;;29.83;18.10;;;7.70;99.90;;;;;;5079031;28;20204;-65
2024/02/12 07:03:24;;;;;;;31.23;16.92;;;7.70;99.90;;;;;;5076926;28;20223;-66
2024/02/12 07:05:52;;;;;;;31.15;18.80;;;7.70;99.90;;;;;;5076323;28;20208;-66
2024/02/12 07:08:21;;;;;;;27.38;17.02;;;7.80;99.90;;;;;;5076932;28;20209;-66
2024/02/12 07:10:48;;;;;;;24.67;15.45;;;7.80;99.90;;;;;;5076312;28;20201;-65
2024/02/12 07:13:15;;;;;;;25.85;16.77;;;7.80;99.90;;;;;;5076270;28;20205;-66
2024/02/12 07:15:42;;;;;;;23.75;16.73;;;7.80;99.90;;;;;;5076001;28;20205;-66
2024/02/12 07:18:09;;;;;;;29.38;16.42;;;7.80;99.90;;;;;;5078721;28;20203;-65
2024/02/12 07:20:36;;;;;;;27.55;17.70;;;7.80;99.90;;;;;;5076678;28;20200;-66
2024/02/12 07:23:04;;;;;;;29.38;17.50;;;7.80;99.90;;;;;;5076248;28;20201;-65
2024/02/12 07:25:31;;;;;;;26.75;17.17;;;7.80;99.90;;;;;;5076752;28;20208;-65
2024/02/12 07:27:58;;;;;;;30.95;17.52;;;7.80;99.90;;;;;;5075212;28;20200;-67
2024/02/12 07:30:25;;;;;;;27.73;16.70;;;7.80;99.90;;;;;;5075617;28;20549;-65
2024/02/12 07:32:52;;;;;;;28.85;17.52;;;7.80;99.90;;;;;;5075177;28;20213;-62
2024/02/12 07:35:18;;;;;;;26.27;16.20;;;7.80;99.90;;;;;;5075588;28;20221;-65
2024/02/12 07:37:45;;;;;;;29.85;17.10;;;7.80;99.90;;;;;;5075471;28;20615;-66
2024/02/12 07:40:13;;;;;;;27.63;16.50;;;7.80;99.90;;;;;;5075838;28;20213;-66
2024/02/12 07:42:42;;;;;;;31.27;16.98;;;7.80;99.90;;;;;;5075603;28;20277;-66
2024/02/12 07:45:10;;;;;;;25.70;16.20;;;7.80;99.90;;;;;;5075040;28;20217;-67
2024/02/12 07:47:39;;;;;;;28.15;16.33;;;7.80;99.90;;;;;;5075133;28;20670;-66
2024/02/12 07:50:06;;;;;;;25.88;17.75;;;7.80;99.90;;;;;;5078161;28;20245;-66
2024/02/12 07:52:33;;;;;;;25.73;15.93;;;7.80;99.90;;;;;;5082549;28;20219;-65
2024/02/12 07:55:01;;;;;;;26.45;16.58;;;7.80;99.90;;;;;;5083070;28;20232;-65
2024/02/12 07:57:29;;;;;;;22.17;14.93;;;7.90;99.90;;;;;;5078826;28;20623;-65
2024/02/12 07:59:56;;;;;;;26.08;15.48;;;7.90;99.90;;;;;;5075764;28;20201;-66
2024/02/12 08:02:23;;;;;;;24.08;13.80;;;7.90;99.90;;;;;;5076281;28;20201;-67
2024/02/12 08:04:50;;;;;;;20.42;13.77;;;7.90;99.90;;;;;;5076021;28;20221;-67
2024/02/12 08:07:16;;;;;;;23.50;13.52;;;8.00;99.90;;;;;;5076445;28;20224;-67
2024/02/12 08:09:44;;;;;;;20.02;12.30;;;8.00;99.90;;;;;;5076657;28;20685;-66
2024/02/12 08:12:13;;;;;;;22.05;14.32;;;8.10;99.90;;;;;;5077039;28;20212;-66
2024/02/12 08:14:41;;;;;;;21.83;13.43;;;8.10;99.90;;;;;;5074985;28;20663;-67
2024/02/12 08:17:10;;;;;;;19.95;14.05;;;8.10;99.90;;;;;;5076935;28;20209;-66
2024/02/12 08:19:40;;;;;;;19.95;13.13;;;8.10;99.90;;;;;;5084386;28;20223;-67
2024/02/12 08:22:06;;;;;;;20.67;14.05;;;8.20;99.90;;;;;;5086456;28;20237;-67
2024/02/12 08:24:33;;;;;;;19.92;13.80;;;8.20;99.90;;;;;;5081320;28;20272;-66
2024/02/12 08:27:00;;;;;;;18.65;12.18;;;8.20;99.90;;;;;;5077862;28;20201;-65
2024/02/12 08:29:29;;;;;;;22.50;14.20;;;8.30;99.90;;;;;;5077603;28;20295;-67
2024/02/12 08:31:57;;;;;;;20.08;12.80;;;8.30;99.90;;;;;;5078350;28;20200;-66
2024/02/12 08:34:24;;;;;;;18.00;12.40;;;8.30;99.90;;;;;;5082063;28;20221;-68
2024/02/12 08:36:50;;;;;;;24.88;15.52;;;8.30;99.90;;;;;;5084108;28;20597;-67
2024/02/12 08:39:17;;;;;;;20.70;12.55;;;8.20;99.90;;;;;;5084189;28;20289;-68
2024/02/12 08:41:44;;;;;;;28.42;15.15;;;8.20;99.90;;;;;;5086136;28;20314;-67
2024/02/12 08:44:11;;;;;;;20.90;13.93;;;8.20;99.90;;;;;;5083695;28;20223;-66
2024/02/12 08:46:38;;;;;;;26.55;15.95;;;8.20;99.90;;;;;;5081878;28;20224;-68
2024/02/12 08:49:06;;;;;;;24.20;15.15;;;8.30;99.90;;;;;;5082853;28;20674;-67
2024/02/12 08:51:33;;;;;;;26.13;13.85;;;8.30;99.90;;;;;;5084713;28;20212;-67
2024/02/12 08:54:00;;;;;;;25.02;14.82;;;8.40;99.90;;;;;;5085019;28;20229;-66
2024/02/12 08:56:28;;;;;;;21.73;14.55;;;8.40;99.90;;;;;;5082668;28;20201;-66
2024/02/12 08:58:56;;;;;;;22.60;13.70;;;8.40;99.90;;;;;;5087137;28;20205;-66
2024/02/12 09:01:23;;;;;;;21.15;13.73;;;8.50;99.90;;;;;;5088079;28;20220;-67
2024/02/12 09:03:50;;;;;;;28.10;15.57;;;8.50;99.90;;;;;;5087099;28;20213;-66
2024/02/12 09:06:18;;;;;;;25.38;15.43;;;8.50;99.90;;;;;;5083989;28;20680;-66
2024/02/12 09:08:46;;;;;;;25.13;15.23;;;8.40;99.90;;;;;;5086079;28;20209;-66
2024/02/12 09:11:14;;;;;;;21.73;13.35;;;8.40;99.90;;;;;;5084585;28;20647;-66
2024/02/12 09:13:42;;;;;;;23.08;15.90;;;8.50;99.90;;;;;;5083628;28;20235;-66
2024/02/12 09:16:09;;;;;;;23.77;15.18;;;8.50;99.90;;;;;;5086194;28;20215;-67
2024/02/12 09:18:36;;;;;;;23.52;15.50;;;8.50;99.90;;;;;;5083331;28;20207;-67
2024/02/12 09:21:03;;;;;;;21.05;14.48;;;8.50;99.90;;;;;;5085669;28;20197;-67
2024/02/12 09:23:32;;;;;;;23.20;12.93;;;8.50;99.90;;;;;;5089648;28;20213;-66
2024/02/12 09:25:59;;;;;;;19.48;13.23;;;8.50;99.90;;;;;;5089188;28;20220;-67
2024/02/12 09:28:27;;;;;;;22.77;14.40;;;8.40;99.90;;;;;;5090007;28;20272;-67
2024/02/12 09:30:54;;;;;;;30.75;14.73;;;8.30;99.90;;;;;;5088267;28;20270;-66
2024/02/12 09:33:20;;;;;;;24.77;15.05;;;8.20;99.90;;;;;;5087991;28;20231;-67
2024/02/12 09:35:47;;;;;;;23.23;15.27;;;8.20;99.90;;;;;;5090116;28;20205;-66
2024/02/12 09:38:15;;;;;;;24.42;15.35;;;8.30;99.90;;;;;;5090065;28;20280;-67
2024/02/12 09:40:44;;;;;;;23.17;15.23;;;8.30;99.90;;;;;;5085073;28;20274;-66
2024/02/12 09:43:14;;;;;;;20.33;13.95;;;8.40;99.90;;;;;;5080959;28;20197;-67
2024/02/12 09:45:44;;;;;;;21.50;15.10;;;8.50;99.90;;;;;;5082273;28;20185;-66
2024/02/12 09:48:12;;;;;;;23.25;14.30;;;8.60;99.90;;;;;;5083045;28;20201;-67
2024/02/12 09:50:39;;;;;;;23.42;14.30;;;8.80;99.90;;;;;;5082737;28;20205;-66
2024/02/12 09:53:09;;;;;;;22.85;14.10;;;8.90;99.90;;;;;;5082697;28;20702;-66
2024/02/12 09:55:36;;;;;;;24.90;14.45;;;9.00;99.90;;;;;;5083919;28;20747;-66
2024/02/12 09:58:05;;;;;;;17.20;13.70;;;9.00;99.90;;;;;;5083374;28;20574;-67
2024/02/12 10:00:32;;;;;;;19.83;13.13;;;9.00;99.90;;;;;;5080572;28;20255;-67
2024/02/12 10:02:59;;;;;;;18.67;14.07;;;9.00;99.90;;;;;;5080174;28;20446;-67
2024/02/12 10:05:29;;;;;;;18.40;12.27;;;9.00;99.90;;;;;;5081951;28;20197;-66
2024/02/12 10:08:01;;;;;;;21.63;13.75;;;9.10;99.90;;;;;;5081742;28;20215;-66
2024/02/12 10:10:28;;;;;;;19.58;12.65;;;9.10;99.90;;;;;;5079755;28;20196;-67
2024/02/12 10:12:55;;;;;;;20.30;12.53;;;9.20;99.90;;;;;;5080233;28;20239;-67
2024/02/12 10:15:23;;;;;;;17.55;11.65;;;9.30;99.90;;;;;;5078532;28;20455;-67
2024/02/12 10:17:50;;;;;;;15.20;12.37;;;9.40;99.90;;;;;;5077941;28;20205;-67
2024/02/12 10:20:17;;;;;;;19.85;12.23;;;9.40;99.90;;;;;;5079248;28;20827;-67
2024/02/12 10:22:44;;;;;;;19.30;13.20;;;9.40;99.90;;;;;;5078716;28;20197;-66
2024/02/12 10:25:11;;;;;;;17.90;11.63;;;9.40;99.90;;;;;;5079775;28;20469;-67
2024/02/12 10:27:38;;;;;;;17.70;11.38;;;9.50;99.90;;;;;;5082766;28;20898;-66
2024/02/12 10:30:06;;;;;;;17.60;11.43;;;9.50;99.90;;;;;;5080779;28;20201;-67
2024/02/12 10:32:36;;;;;;;15.20;11.23;;;9.40;99.90;;;;;;5081172;28;20443;-66
2024/02/12 10:35:06;;;;;;;17.33;12.07;;;9.40;99.90;;;;;;5080251;28;20560;-66
2024/02/12 10:37:35;;;;;;;20.57;12.10;;;9.40;99.90;;;;;;5078621;28;20428;-69
2024/02/12 10:40:12;;;;;;;18.88;12.27;;;9.40;99.90;;;;;;5078411;28;20933;-67
2024/02/12 10:42:45;;;;;;;17.30;11.60;;;9.50;99.90;;;;;;5078573;28;20717;-67
2024/02/12 10:45:12;;;;;;;17.00;12.60;;;9.50;99.90;;;;;;5085053;28;20243;-67
2024/02/12 10:47:40;;;;;;;14.13;10.63;;;9.60;99.90;;;;;;5079546;28;20454;-67
2024/02/12 10:50:13;;;;;;;15.20;11.60;;;9.60;99.90;;;;;;5078000;28;20443;-67
2024/02/12 10:52:41;;;;;;;17.97;11.70;;;9.60;99.90;;;;;;5077546;28;20515;-66
2024/02/12 10:55:09;;;;;;;18.43;10.57;;;9.60;99.90;;;;;;5076202;28;20479;-67
2024/02/12 10:57:38;;;;;;;16.60;12.00;;;9.60;99.90;;;;;;5076786;28;20443;-67
2024/02/12 11:00:06;;;;;;;17.55;13.27;;;9.60;99.90;;;;;;5076347;28;20446;-66
2024/02/12 11:02:43;;;;;;;18.67;12.33;;;9.70;99.90;;;;;;5075249;28;20208;-67
2024/02/12 11:05:12;;;;;;;19.87;12.97;;;9.60;99.90;;;;;;5076939;28;20475;-67
2024/02/12 11:07:40;;;;;;;19.90;13.50;;;9.60;99.90;;;;;;5077441;28;20451;-66
2024/02/12 11:10:09;;;;;;;24.33;13.83;;;9.70;99.90;;;;;;5077076;28;20941;-67
2024/02/12 11:12:41;;;;;;;19.13;14.20;;;9.80;99.90;;;;;;5077640;28;20910;-66
2024/02/12 11:15:13;;;;;;;21.93;14.20;;;9.80;99.90;;;;;;5075545;28;20479;-66
2024/02/12 11:17:42;;;;;;;19.47;12.60;;;9.80;99.90;;;;;;5077591;28;20439;-67
2024/02/12 11:20:17;;;;;;;22.53;14.27;;;9.90;99.90;;;;;;5079499;28;20450;-67
2024/02/12 11:22:46;;;;;;;23.53;13.60;;;9.90;99.90;;;;;;5078426;28;20932;-67
2024/02/12 11:25:16;;;;;;;22.10;14.00;;;9.90;99.90;;;;;;5076248;28;20474;-66
2024/02/12 11:27:48;;;;;;;18.38;13.20;;;10.00;99.90;;;;;;5076057;28;20447;-67
2024/02/12 11:30:16;;;;;;;21.10;14.20;;;10.10;99.90;;;;;;5075949;28;20188;-67
2024/02/12 11:32:44;;;;;;;19.90;14.40;;;10.20;99.90;;;;;;5076238;28;20443;-66
2024/02/12 11:35:12;;;;;;;22.20;14.73;;;10.30;99.90;;;;;;5076071;28;20479;-67
2024/02/12 11:37:41;;;;;;;20.47;15.00;;;10.30;99.90;;;;;;5075090;28;20447;-66
2024/02/12 11:40:12;;;;;;;22.87;15.00;;;10.40;99.90;;;;;;5075571;28;20953;-66
2024/02/12 11:42:44;;;;;;;20.70;13.90;;;10.40;99.90;;;;;;5075649;28;20489;-66
2024/02/12 11:45:11;;;;;;;17.03;13.67;;;10.30;99.90;;;;;;5075856;28;20490;-66
2024/02/12 11:47:38;;;;;;;18.77;13.43;;;10.30;99.90;;;;;;5075561;28;20447;-66
2024/02/12 11:50:05;;;;;;;24.20;13.65;;;10.30;99.90;;;;;;5075849;28;20443;-66
2024/02/12 11:52:33;;;;;;;19.33;14.93;;;10.30;99.90;;;;;;5076528;28;20201;-68
2024/02/12 11:55:07;;;;;;;21.53;14.17;;;10.40;99.90;;;;;;5075935;28;20537;-67
2024/02/12 11:57:33;;;;;;;19.17;13.53;;;10.40;99.90;;;;;;5076325;28;20548;-67
2024/02/12 12:00:00;;;;;;;20.13;13.97;;;10.40;99.90;;;;;;5076614;28;20447;-67
2024/02/12 12:02:27;;;;;;;19.50;13.20;;;10.40;99.90;;;;;;5077718;28;20482;-66
2024/02/12 12:04:54;;;;;;;19.57;14.27;;;10.40;99.90;;;;;;5075925;28;20824;-66
2024/02/12 12:07:21;;;;;;;18.25;13.82;;;10.40;99.90;;;;;;5077275;28;20472;-67
2024/02/12 12:09:48;;;;;;;17.80;13.73;;;10.30;99.90;;;;;;5077619;28;20688;-68
2024/02/12 12:12:24;;;;;;;23.17;13.87;;;10.30;99.90;;;;;;5076347;28;20527;-67
2024/02/12 12:14:51;;;;;;;19.23;13.97;;;10.20;99.90;;;;;;5075632;28;20493;-67
2024/02/12 12:17:18;;;;;;;18.33;14.10;;;10.10;99.90;;;;;;5076246;28;20443;-67
2024/02/12 12:19:46;;;;;;;19.57;13.60;;;10.10;99.90;;;;;;5075039;28;20439;-67
2024/02/12 12:22:18;;;;;;;21.90;14.30;;;10.00;99.90;;;;;;5076999;28;20435;-67
2024/02/12 12:24:45;;;;;;;22.25;14.35;;;9.90;99.90;;;;;;5076406;28;20509;-66
2024/02/12 12:27:24;;;;;;;19.83;13.83;;;9.90;99.90;;;;;;5076851;28;20211;-65
2024/02/12 12:29:52;;;;;;;18.60;13.90;;;9.90;99.90;;;;;;5076823;28;20520;-66
2024/02/12 12:32:19;;;;;;;19.70;14.55;;;9.90;99.90;;;;;;5076092;28;20455;-67
2024/02/12 12:34:46;;;;;;;16.50;13.00;;;9.90;99.90;;;;;;5079435;28;20224;-67
2024/02/12 12:37:14;;;;;;;18.10;13.70;;;9.90;99.90;;;;;;5079840;28;20208;-67
2024/02/12 12:39:41;;;;;;;20.08;13.32;;;9.90;99.90;;;;;;5080106;28;20512;-66
2024/02/12 12:42:09;;;;;;;19.23;13.57;;;9.90;99.90;;;;;;5080177;28;20201;-69
2024/02/12 12:44:38;;;;;;;16.67;13.93;;;9.90;99.90;;;;;;5081481;28;20830;-67
2024/02/12 12:47:05;;;;;;;20.87;14.73;;;9.90;99.90;;;;;;5080073;28;20766;-67
2024/02/12 12:49:32;;;;;;;20.03;14.10;;;9.90;99.90;;;;;;5080686;28;20443;-66
2024/02/12 12:51:59;;;;;;;17.50;13.83;;;9.80;99.90;;;;;;5081001;28;20447;-67
2024/02/12 12:54:26;;;;;;;20.15;14.40;;;9.80;99.90;;;;;;5080679;28;20981;-67
2024/02/12 12:56:53;;;;;;;17.83;12.88;;;9.80;99.90;;;;;;5082419;28;20206;-67